EWG55X EDDS-EDDB
Flight info
| Callsign | EWG55X |
|---|---|
| Flight time | 0h 57m |
| Altitude | 35000 |
| Route | OKIBA4H/07 OKIBA N851 RIMKI Z99 LOHRE N746 TIKNI T279 TAMEB T278 KLF KLF1R |
| Aircraft | A321/M-SDE3FGHIRWY/LB1 |
Departure
| Time | 2026-04-30 19:10 |
|---|---|
| Airport | Stuttgart Airport (EDDS) |
Arrival
| Time | 2026-04-30 20:07 |
|---|---|
| Airport | Berlin Brandenburg Airport (EDDB) |
| Time | Latitude | Longitude | Altitude | Speed | Heading |
|---|---|---|---|---|---|
| 2026-04-30 18:45 | 48.68910 | 9.19515 | 1315 ft | 0 kts | 344° |
| 2026-04-30 19:01 | 48.68888 | 9.19524 | 1313 ft | 4 kts | 344° |
| 2026-04-30 19:02 | 48.68843 | 9.19535 | 1311 ft | 4 kts | 38° |
| 2026-04-30 19:02 | 48.68826 | 9.19486 | 1312 ft | 1 kts | 74° |
| 2026-04-30 19:04 | 48.68827 | 9.19487 | 1312 ft | 1 kts | 74° |
| 2026-04-30 19:05 | 48.68860 | 9.19666 | 1308 ft | 15 kts | 74° |
| 2026-04-30 19:05 | 48.68807 | 9.19927 | 1296 ft | 16 kts | 150° |
| 2026-04-30 19:06 | 48.68685 | 9.19987 | 1289 ft | 0 kts | 164° |
| 2026-04-30 19:08 | 48.68683 | 9.19987 | 1289 ft | 2 kts | 163° |
| 2026-04-30 19:08 | 48.68591 | 9.20078 | 1283 ft | 13 kts | 100° |
| 2026-04-30 19:08 | 48.68595 | 9.20115 | 1282 ft | 0 kts | 73° |
| 2026-04-30 19:10 | 48.68818 | 9.21302 | 1260 ft | 126 kts | 74° |
| 2026-04-30 19:10 | 48.69424 | 9.24570 | 2097 ft | 168 kts | 76° |
| 2026-04-30 19:11 | 48.69732 | 9.26284 | 2700 ft | 175 kts | 77° |
| 2026-04-30 19:11 | 48.70461 | 9.30223 | 3014 ft | 219 kts | 76° |
| 2026-04-30 19:11 | 48.70898 | 9.32542 | 3434 ft | 234 kts | 76° |
| 2026-04-30 19:12 | 48.71360 | 9.34961 | 4181 ft | 238 kts | 76° |
| 2026-04-30 19:12 | 48.71819 | 9.37359 | 4877 ft | 243 kts | 77° |
| 2026-04-30 19:12 | 48.72292 | 9.39848 | 5537 ft | 248 kts | 77° |
| 2026-04-30 19:13 | 48.73268 | 9.44963 | 6881 ft | 258 kts | 75° |
| 2026-04-30 19:13 | 48.74594 | 9.50080 | 8196 ft | 269 kts | 53° |
| 2026-04-30 19:13 | 48.76055 | 9.51891 | 8871 ft | 278 kts | 28° |
| 2026-04-30 19:14 | 48.77940 | 9.52621 | 9553 ft | 287 kts | 4° |
| 2026-04-30 19:14 | 48.79950 | 9.52455 | 10245 ft | 291 kts | 359° |
| 2026-04-30 19:14 | 48.82001 | 9.52215 | 10627 ft | 305 kts | 358° |
| 2026-04-30 19:14 | 48.84190 | 9.51956 | 10755 ft | 326 kts | 358° |
| 2026-04-30 19:15 | 48.86509 | 9.51684 | 10979 ft | 341 kts | 358° |
| 2026-04-30 19:15 | 48.91312 | 9.51127 | 12086 ft | 349 kts | 359° |
| 2026-04-30 19:15 | 48.93741 | 9.50840 | 12693 ft | 352 kts | 357° |
| 2026-04-30 19:16 | 48.96152 | 9.50069 | 13276 ft | 359 kts | 345° |
| 2026-04-30 19:16 | 48.98468 | 9.48562 | 13857 ft | 364 kts | 337° |
| 2026-04-30 19:16 | 49.03062 | 9.45182 | 14972 ft | 369 kts | 338° |
| 2026-04-30 19:17 | 49.05377 | 9.43485 | 15523 ft | 371 kts | 338° |
| 2026-04-30 19:17 | 49.10055 | 9.40054 | 16595 ft | 375 kts | 338° |
| 2026-04-30 19:17 | 49.12414 | 9.38320 | 17116 ft | 378 kts | 338° |
| 2026-04-30 19:18 | 49.16362 | 9.35406 | 17988 ft | 381 kts | 338° |
| 2026-04-30 19:18 | 49.19572 | 9.33067 | 18670 ft | 382 kts | 341° |
| 2026-04-30 19:18 | 49.22099 | 9.31841 | 19053 ft | 381 kts | 351° |
| 2026-04-30 19:19 | 49.24728 | 9.31349 | 19458 ft | 381 kts | 0° |
| 2026-04-30 19:19 | 49.27380 | 9.31151 | 19874 ft | 383 kts | 0° |
| 2026-04-30 19:19 | 49.32726 | 9.30742 | 20717 ft | 387 kts | 0° |
| 2026-04-30 19:20 | 49.35421 | 9.30595 | 21128 ft | 387 kts | 5° |
| 2026-04-30 19:20 | 49.38105 | 9.30921 | 21524 ft | 388 kts | 8° |
| 2026-04-30 19:20 | 49.43469 | 9.31719 | 22313 ft | 392 kts | 8° |
| 2026-04-30 19:21 | 49.46191 | 9.32125 | 22710 ft | 394 kts | 8° |
| 2026-04-30 19:21 | 49.51677 | 9.32939 | 23481 ft | 399 kts | 8° |
| 2026-04-30 19:22 | 49.57230 | 9.33761 | 24190 ft | 403 kts | 8° |
| 2026-04-30 19:22 | 49.65649 | 9.35015 | 25223 ft | 407 kts | 8° |
| 2026-04-30 19:23 | 49.74159 | 9.36291 | 26197 ft | 412 kts | 11° |
| 2026-04-30 19:24 | 49.79738 | 9.38241 | 26827 ft | 412 kts | 17° |
| 2026-04-30 19:24 | 49.82522 | 9.39314 | 27138 ft | 414 kts | 17° |
| 2026-04-30 19:24 | 49.88133 | 9.41474 | 27757 ft | 417 kts | 17° |
| 2026-04-30 19:25 | 49.96631 | 9.44749 | 28680 ft | 422 kts | 17° |
| 2026-04-30 19:26 | 50.02347 | 9.46964 | 29264 ft | 425 kts | 17° |
| 2026-04-30 19:26 | 50.07866 | 9.50152 | 29796 ft | 423 kts | 32° |
| 2026-04-30 19:26 | 50.10319 | 9.52682 | 30045 ft | 424 kts | 37° |
| 2026-04-30 19:27 | 50.15117 | 9.58074 | 30534 ft | 427 kts | 37° |
| 2026-04-30 19:27 | 50.19944 | 9.63509 | 30962 ft | 428 kts | 37° |
| 2026-04-30 19:28 | 50.22328 | 9.66198 | 31236 ft | 427 kts | 37° |
| 2026-04-30 19:28 | 50.27132 | 9.71617 | 31863 ft | 424 kts | 37° |
| 2026-04-30 19:29 | 50.31887 | 9.76989 | 32486 ft | 420 kts | 37° |
| 2026-04-30 19:29 | 50.34247 | 9.79669 | 32754 ft | 419 kts | 37° |
| 2026-04-30 19:30 | 50.41231 | 9.87845 | 33540 ft | 417 kts | 43° |
| 2026-04-30 19:30 | 50.45233 | 9.94405 | 34038 ft | 415 kts | 46° |
| 2026-04-30 19:31 | 50.49202 | 10.00992 | 34488 ft | 416 kts | 46° |
| 2026-04-30 19:31 | 50.51190 | 10.04294 | 34692 ft | 415 kts | 46° |
| 2026-04-30 19:31 | 50.55147 | 10.10885 | 35138 ft | 414 kts | 46° |
| 2026-04-30 19:32 | 50.57121 | 10.14187 | 35332 ft | 414 kts | 46° |
| 2026-04-30 19:32 | 50.59089 | 10.17481 | 35414 ft | 412 kts | 46° |
| 2026-04-30 19:32 | 50.63002 | 10.24035 | 35426 ft | 410 kts | 46° |
| 2026-04-30 19:33 | 50.66468 | 10.31126 | 35446 ft | 411 kts | 60° |
| 2026-04-30 19:33 | 50.69163 | 10.38981 | 35434 ft | 409 kts | 59° |
| 2026-04-30 19:34 | 50.71874 | 10.46871 | 35434 ft | 409 kts | 59° |
| 2026-04-30 19:35 | 50.75954 | 10.58722 | 35445 ft | 409 kts | 56° |
| 2026-04-30 19:35 | 50.79175 | 10.66115 | 35450 ft | 409 kts | 53° |
| 2026-04-30 19:36 | 50.82469 | 10.73436 | 35454 ft | 409 kts | 53° |
| 2026-04-30 19:36 | 50.87397 | 10.84460 | 35451 ft | 409 kts | 53° |
| 2026-04-30 19:37 | 50.90671 | 10.91838 | 35473 ft | 409 kts | 53° |
| 2026-04-30 19:37 | 50.93927 | 10.99211 | 35468 ft | 408 kts | 53° |
| 2026-04-30 19:38 | 50.97170 | 11.06589 | 35463 ft | 407 kts | 53° |
| 2026-04-30 19:38 | 50.99858 | 11.12713 | 35463 ft | 407 kts | 53° |
| 2026-04-30 19:39 | 51.03087 | 11.20085 | 35463 ft | 406 kts | 53° |
| 2026-04-30 19:39 | 51.06836 | 11.28668 | 35465 ft | 407 kts | 53° |
| 2026-04-30 19:40 | 51.09541 | 11.34863 | 35463 ft | 407 kts | 53° |
| 2026-04-30 19:40 | 51.12765 | 11.42271 | 35464 ft | 407 kts | 53° |
| 2026-04-30 19:41 | 51.15964 | 11.49649 | 35483 ft | 407 kts | 53° |
| 2026-04-30 19:41 | 51.19169 | 11.57063 | 35476 ft | 405 kts | 53° |
| 2026-04-30 19:42 | 51.22351 | 11.64455 | 35281 ft | 402 kts | 53° |
| 2026-04-30 19:42 | 51.23954 | 11.68183 | 34958 ft | 402 kts | 53° |
| 2026-04-30 19:42 | 51.25509 | 11.71806 | 34428 ft | 401 kts | 53° |
| 2026-04-30 19:43 | 51.27074 | 11.75456 | 33938 ft | 396 kts | 53° |
| 2026-04-30 19:43 | 51.28632 | 11.79093 | 33335 ft | 395 kts | 54° |
| 2026-04-30 19:43 | 51.30174 | 11.82696 | 32809 ft | 392 kts | 54° |
| 2026-04-30 19:44 | 51.33218 | 11.89819 | 31814 ft | 384 kts | 54° |
| 2026-04-30 19:44 | 51.34712 | 11.93331 | 31320 ft | 380 kts | 54° |
| 2026-04-30 19:44 | 51.36193 | 11.96814 | 30834 ft | 377 kts | 54° |
| 2026-04-30 19:44 | 51.37654 | 12.00263 | 30334 ft | 373 kts | 54° |
| 2026-04-30 19:45 | 51.39102 | 12.03686 | 29780 ft | 369 kts | 54° |
| 2026-04-30 19:45 | 51.40536 | 12.07073 | 29293 ft | 365 kts | 54° |
| 2026-04-30 19:45 | 51.41950 | 12.10414 | 28811 ft | 360 kts | 54° |
| 2026-04-30 19:45 | 51.43349 | 12.13718 | 28274 ft | 356 kts | 54° |
| 2026-04-30 19:46 | 51.44731 | 12.16989 | 27722 ft | 354 kts | 54° |
| 2026-04-30 19:46 | 51.46104 | 12.20249 | 27217 ft | 351 kts | 54° |
| 2026-04-30 19:46 | 51.47464 | 12.23481 | 26702 ft | 348 kts | 54° |
| 2026-04-30 19:46 | 51.48816 | 12.26695 | 26208 ft | 346 kts | 54° |
| 2026-04-30 19:47 | 51.50154 | 12.29882 | 25733 ft | 343 kts | 54° |
| 2026-04-30 19:47 | 51.51036 | 12.31987 | 25411 ft | 342 kts | 54° |
| 2026-04-30 19:47 | 51.52804 | 12.36203 | 24770 ft | 339 kts | 54° |
| 2026-04-30 19:47 | 51.54112 | 12.39331 | 24307 ft | 336 kts | 54° |
| 2026-04-30 19:48 | 51.55411 | 12.42442 | 23822 ft | 334 kts | 54° |
| 2026-04-30 19:48 | 51.56699 | 12.45535 | 23289 ft | 332 kts | 55° |
| 2026-04-30 19:48 | 51.57977 | 12.48602 | 22776 ft | 329 kts | 55° |
| 2026-04-30 19:48 | 51.59245 | 12.51643 | 22273 ft | 326 kts | 55° |
| 2026-04-30 19:49 | 51.60498 | 12.54656 | 21768 ft | 323 kts | 55° |
| 2026-04-30 19:49 | 51.62975 | 12.60620 | 21430 ft | 321 kts | 55° |
| 2026-04-30 19:49 | 51.64217 | 12.63615 | 21436 ft | 322 kts | 55° |
| 2026-04-30 19:50 | 51.65462 | 12.66623 | 21457 ft | 322 kts | 55° |
| 2026-04-30 19:50 | 51.66701 | 12.69620 | 21437 ft | 321 kts | 55° |
| 2026-04-30 19:50 | 51.67936 | 12.72607 | 21436 ft | 320 kts | 55° |
| 2026-04-30 19:50 | 51.69171 | 12.75596 | 21436 ft | 320 kts | 55° |
| 2026-04-30 19:51 | 51.70400 | 12.78580 | 21366 ft | 320 kts | 55° |
| 2026-04-30 19:51 | 51.71630 | 12.81566 | 20921 ft | 317 kts | 55° |
| 2026-04-30 19:51 | 51.72840 | 12.84505 | 20539 ft | 311 kts | 55° |
| 2026-04-30 19:51 | 51.74025 | 12.87390 | 20164 ft | 306 kts | 55° |
| 2026-04-30 19:52 | 51.75189 | 12.90228 | 19795 ft | 301 kts | 56° |
| 2026-04-30 19:52 | 51.76332 | 12.93019 | 19430 ft | 296 kts | 56° |
| 2026-04-30 19:52 | 51.77455 | 12.95772 | 19066 ft | 291 kts | 56° |
| 2026-04-30 19:52 | 51.78559 | 12.98480 | 18712 ft | 287 kts | 56° |
| 2026-04-30 19:53 | 51.79646 | 13.01149 | 18323 ft | 282 kts | 56° |
| 2026-04-30 19:53 | 51.80716 | 13.03772 | 17972 ft | 277 kts | 56° |
| 2026-04-30 19:53 | 51.81777 | 13.06372 | 17639 ft | 278 kts | 56° |
| 2026-04-30 19:53 | 51.82837 | 13.08980 | 17290 ft | 277 kts | 56° |
| 2026-04-30 19:54 | 51.83890 | 13.11571 | 16950 ft | 276 kts | 56° |
| 2026-04-30 19:54 | 51.84943 | 13.14157 | 16612 ft | 275 kts | 56° |
| 2026-04-30 19:54 | 51.85977 | 13.16707 | 16283 ft | 274 kts | 56° |
| 2026-04-30 19:54 | 51.87019 | 13.19276 | 15937 ft | 273 kts | 56° |
| 2026-04-30 19:55 | 51.88060 | 13.21842 | 15599 ft | 272 kts | 56° |
| 2026-04-30 19:55 | 51.89099 | 13.24401 | 15259 ft | 271 kts | 56° |
| 2026-04-30 19:55 | 51.90131 | 13.26950 | 14926 ft | 270 kts | 56° |
| 2026-04-30 19:55 | 51.91158 | 13.29495 | 14581 ft | 270 kts | 56° |
| 2026-04-30 19:56 | 51.92183 | 13.32039 | 14255 ft | 269 kts | 56° |
| 2026-04-30 19:56 | 51.93207 | 13.34578 | 13880 ft | 269 kts | 56° |
| 2026-04-30 19:56 | 51.94225 | 13.37112 | 13538 ft | 268 kts | 56° |
| 2026-04-30 19:56 | 51.95239 | 13.39642 | 13203 ft | 267 kts | 56° |
| 2026-04-30 19:57 | 51.96249 | 13.42162 | 12867 ft | 266 kts | 56° |
| 2026-04-30 19:57 | 51.97258 | 13.44670 | 12537 ft | 265 kts | 56° |
| 2026-04-30 19:57 | 51.98308 | 13.47113 | 12202 ft | 264 kts | 47° |
| 2026-04-30 19:57 | 51.99748 | 13.48920 | 11870 ft | 264 kts | 28° |
| 2026-04-30 19:58 | 52.01509 | 13.49755 | 11531 ft | 267 kts | 8° |
| 2026-04-30 19:58 | 52.03370 | 13.49466 | 11131 ft | 274 kts | 347° |
| 2026-04-30 19:58 | 52.05074 | 13.48010 | 10715 ft | 284 kts | 325° |
| 2026-04-30 19:58 | 52.06335 | 13.45531 | 10546 ft | 289 kts | 308° |
| 2026-04-30 19:59 | 52.07452 | 13.42744 | 10095 ft | 297 kts | 308° |
| 2026-04-30 19:59 | 52.08591 | 13.39939 | 9621 ft | 297 kts | 308° |
| 2026-04-30 19:59 | 52.10841 | 13.34406 | 8808 ft | 292 kts | 307° |
| 2026-04-30 20:00 | 52.11958 | 13.31647 | 8386 ft | 291 kts | 307° |
| 2026-04-30 20:00 | 52.13062 | 13.28910 | 7845 ft | 288 kts | 307° |
| 2026-04-30 20:00 | 52.14156 | 13.26195 | 7268 ft | 286 kts | 306° |
| 2026-04-30 20:00 | 52.15264 | 13.23529 | 6710 ft | 282 kts | 312° |
| 2026-04-30 20:01 | 52.18316 | 13.19904 | 5575 ft | 268 kts | 341° |
| 2026-04-30 20:01 | 52.20055 | 13.18812 | 4985 ft | 266 kts | 340° |
| 2026-04-30 20:01 | 52.21728 | 13.17748 | 4669 ft | 248 kts | 340° |
| 2026-04-30 20:02 | 52.24778 | 13.15831 | 4409 ft | 230 kts | 347° |
| 2026-04-30 20:02 | 52.26339 | 13.15914 | 4151 ft | 225 kts | 25° |
| 2026-04-30 20:03 | 52.28110 | 13.19887 | 3634 ft | 226 kts | 68° |
| 2026-04-30 20:03 | 52.28665 | 13.22279 | 3364 ft | 223 kts | 68° |
| 2026-04-30 20:03 | 52.29215 | 13.24594 | 3062 ft | 214 kts | 67° |
| 2026-04-30 20:03 | 52.29744 | 13.26798 | 2770 ft | 203 kts | 67° |
| 2026-04-30 20:04 | 52.30248 | 13.28895 | 2500 ft | 194 kts | 67° |
| 2026-04-30 20:04 | 52.30729 | 13.30898 | 2242 ft | 186 kts | 67° |
| 2026-04-30 20:04 | 52.31191 | 13.32824 | 2001 ft | 178 kts | 67° |
| 2026-04-30 20:05 | 52.32029 | 13.36323 | 1548 ft | 151 kts | 66° |
| 2026-04-30 20:05 | 52.32405 | 13.37891 | 1351 ft | 148 kts | 66° |
| 2026-04-30 20:05 | 52.33159 | 13.41018 | 963 ft | 149 kts | 66° |
| 2026-04-30 20:06 | 52.33538 | 13.42610 | 732 ft | 150 kts | 68° |
| 2026-04-30 20:06 | 52.33905 | 13.44179 | 544 ft | 146 kts | 68° |
| 2026-04-30 20:06 | 52.34273 | 13.45686 | 357 ft | 144 kts | 68° |
| 2026-04-30 20:06 | 52.34638 | 13.47229 | 170 ft | 142 kts | 68° |
| 2026-04-30 20:07 | 52.34954 | 13.48536 | 154 ft | 101 kts | 70° |
| 2026-04-30 20:07 | 52.35137 | 13.49338 | 154 ft | 52 kts | 69° |
| 2026-04-30 20:07 | 52.35376 | 13.49983 | 154 ft | 25 kts | 39° |
| 2026-04-30 20:08 | 52.35425 | 13.50049 | 154 ft | 3 kts | 40° |
| 2026-04-30 20:08 | 52.35459 | 13.50096 | 154 ft | 8 kts | 40° |
| 2026-04-30 20:08 | 52.35461 | 13.50098 | 154 ft | 0 kts | 40° |
| 2026-04-30 20:09 | 52.35472 | 13.50113 | 154 ft | 4 kts | 40° |
| 2026-04-30 20:10 | 52.35538 | 13.50206 | 154 ft | 8 kts | 40° |
| 2026-04-30 20:10 | 52.35584 | 13.50271 | 154 ft | 10 kts | 46° |
| 2026-04-30 20:10 | 52.35617 | 13.50374 | 154 ft | 11 kts | 68° |
| 2026-04-30 20:11 | 52.35695 | 13.50650 | 154 ft | 16 kts | 41° |
| 2026-04-30 20:11 | 52.35805 | 13.50646 | 154 ft | 17 kts | 339° |
| 2026-04-30 20:11 | 52.35838 | 13.50624 | 154 ft | 0 kts | 338° |
| 2026-04-30 20:12 | 52.35910 | 13.50615 | 154 ft | 11 kts | 38° |
| 2026-04-30 20:12 | 52.35962 | 13.50746 | 154 ft | 19 kts | 19° |
| 2026-04-30 20:12 | 52.36050 | 13.50684 | 155 ft | 0 kts | 322° |
| 2026-04-30 20:13 | 52.36063 | 13.50684 | 154 ft | 3 kts | 9° |
| 2026-04-30 20:13 | 52.36081 | 13.50738 | 155 ft | 8 kts | 64° |
| 2026-04-30 20:13 | 52.36095 | 13.50794 | 155 ft | 0 kts | 71° |